Time;durP1;ratioP1;P1;durP2;ratioP2;P2;SDS_P1;SDS_P2;PMS_P1;PMS_P2;Temp;Humidity;BMP_temperature;BMP_pressure;BME280_temperature;BME280_humidity;BME280_pressure;Samples;Min_cycle;Max_cycle;Signal;HPM_P1;HPM_P2
2023/04/08 00:00:08;;;;;;;14.57;12.10;;;;;;;5.51;66.23;101573.53;683219;29;1098;-87
2023/04/08 00:00:33;;;;;;;14.90;12.23;;;;;;;5.47;66.31;101570.75;680497;29;927;-87
2023/04/08 00:00:54;;;;;;;15.38;12.43;;;;;;;5.52;66.35;101583.09;680264;29;1046;-85
2023/04/08 00:01:14;;;;;;;14.55;12.18;;;;;;;5.42;66.32;101569.56;680399;29;1077;-85
2023/04/08 00:01:35;;;;;;;13.53;11.97;;;;;;;5.50;66.42;101595.03;683147;29;1152;-86
2023/04/08 00:01:56;;;;;;;12.98;11.68;;;;;;;5.44;66.67;101595.53;679968;29;1291;-85
2023/04/08 00:02:16;;;;;;;13.88;12.10;;;;;;;5.46;66.49;101592.25;685746;28;1193;-85
2023/04/08 00:02:37;;;;;;;14.85;12.20;;;;;;;5.41;66.67;101572.94;680532;28;1195;-85
2023/04/08 00:02:58;;;;;;;15.70;12.60;;;;;;;5.40;66.72;101571.16;682909;29;1164;-85
2023/04/08 00:03:19;;;;;;;16.27;13.20;;;;;;;5.46;66.74;101594.84;680487;29;1019;-85
2023/04/08 00:03:40;;;;;;;17.10;14.13;;;;;;;5.35;66.76;101577.75;683177;28;906;-85
2023/04/08 00:04:00;;;;;;;18.10;14.33;;;;;;;5.33;66.80;101584.50;680250;29;1116;-85
2023/04/08 00:04:21;;;;;;;17.55;13.80;;;;;;;5.42;66.68;101572.16;680476;29;1187;-85
2023/04/08 00:04:45;;;;;;;18.02;13.60;;;;;;;5.46;66.89;101581.91;682917;29;1199;-85
2023/04/08 00:05:06;;;;;;;19.25;14.52;;;;;;;5.39;66.72;101574.53;683110;28;1005;-85
2023/04/08 00:05:26;;;;;;;21.33;15.70;;;;;;;5.43;66.31;101589.50;685765;28;1168;-85
2023/04/08 00:05:47;;;;;;;20.90;15.83;;;;;;;5.34;67.04;101579.44;682604;28;1292;-85
2023/04/08 00:06:07;;;;;;;21.45;16.10;;;;;;;5.37;66.77;101599.44;682735;29;1235;-85
2023/04/08 00:06:28;;;;;;;21.50;16.00;;;;;;;5.37;67.09;101583.91;680235;29;793;-85
2023/04/08 00:06:49;;;;;;;22.10;16.17;;;;;;;5.38;66.83;101575.34;680196;29;1259;-85
2023/04/08 00:07:10;;;;;;;21.67;16.15;;;;;;;5.42;66.76;101586.78;680488;29;1013;-86
2023/04/08 00:07:30;;;;;;;23.00;16.40;;;;;;;5.40;67.06;101596.16;683160;29;1068;-85
2023/04/08 00:08:10;;;;;;;22.88;16.13;;;;;;;5.55;66.80;101599.72;684847;28;1164;-85
2023/04/08 00:08:31;;;;;;;20.38;15.32;;;;;;;5.54;66.68;101591.84;685774;28;1118;-85
2023/04/08 00:08:52;;;;;;;21.85;15.50;;;;;;;5.52;66.50;101596.03;682988;29;1022;-85
2023/04/08 00:09:12;;;;;;;29.27;18.10;;;;;;;5.55;66.72;101598.81;677814;29;1190;-85
2023/04/08 00:09:33;;;;;;;42.20;22.83;;;;;;;5.54;66.40;101591.84;680514;29;777;-85
2023/04/08 00:09:54;;;;;;;58.65;29.55;;;;;;;5.47;66.79;101581.09;682966;29;1339;-85
2023/04/08 00:10:15;;;;;;;77.25;35.58;;;;;;;5.40;66.60;101588.41;683080;29;1084;-85
2023/04/08 00:10:36;;;;;;;101.03;42.78;;;;;;;5.37;66.80;101594.28;685745;28;1281;-85
2023/04/08 00:10:56;;;;;;;109.63;44.67;;;;;;;5.41;66.85;101595.34;685540;28;1136;-85
2023/04/08 00:11:17;;;;;;;106.43;40.55;;;;;;;5.61;66.43;101591.41;683011;29;1457;-85
2023/04/08 00:11:38;;;;;;;95.30;33.13;;;;;;;5.63;65.95;101587.22;683072;29;1055;-85
2023/04/08 00:12:00;;;;;;;88.34;28.42;;;;;;;5.70;65.60;101581.63;682877;29;1265;-85
2023/04/08 00:12:20;;;;;;;80.85;26.38;;;;;;;5.82;65.04;101580.59;680332;29;1246;-85
2023/04/08 00:12:41;;;;;;;70.85;25.27;;;;;;;5.92;65.04;101600.16;682730;29;1255;-85
2023/04/08 00:13:01;;;;;;;64.30;23.37;;;;;;;5.89;64.46;101581.03;680466;29;1169;-85
2023/04/08 00:13:22;;;;;;;61.20;22.03;;;;;;;5.95;64.32;101584.81;680413;29;1285;-85
2023/04/08 00:13:43;;;;;;;52.70;19.17;;;;;;;6.00;63.85;101594.66;682966;29;1269;-85
2023/04/08 00:14:03;;;;;;;45.67;18.10;;;;;;;5.98;63.50;101575.53;680216;29;1143;-85
2023/04/08 00:14:24;;;;;;;35.97;16.33;;;;;;;5.97;63.75;101583.19;680527;29;893;-85
2023/04/08 00:14:45;;;;;;;28.35;14.73;;;;;;;6.06;63.40;101593.22;680214;29;1903;-85
2023/04/08 00:15:05;;;;;;;24.02;13.13;;;;;;;5.99;63.35;101584.16;680398;29;1006;-85
2023/04/08 00:15:26;;;;;;;24.67;12.07;;;;;;;5.97;63.21;101578.94;680455;29;911;-85
2023/04/08 00:15:47;;;;;;;23.90;11.93;;;;;;;6.07;62.87;101602.78;682574;29;1037;-86
2023/04/08 00:16:08;;;;;;;23.37;12.07;;;;;;;6.01;63.18;101596.44;683142;29;1187;-85
2023/04/08 00:16:28;;;;;;;20.42;12.40;;;;;;;5.94;63.47;101596.84;685823;28;1198;-85
2023/04/08 00:16:49;;;;;;;19.52;12.57;;;;;;;6.05;62.97;101604.38;682732;29;1166;-85
2023/04/08 00:17:10;;;;;;;21.95;12.52;;;;;;;5.95;63.25;101593.47;683069;29;1048;-85
2023/04/08 00:17:30;;;;;;;23.90;12.70;;;;;;;5.94;63.00;101580.44;685785;28;1114;-85
2023/04/08 00:17:53;;;;;;;26.03;13.30;;;;;;;6.01;63.00;101596.44;682872;29;1212;-85
2023/04/08 00:18:15;;;;;;;25.15;13.88;;;;;;;5.93;63.05;101592.47;680362;29;1269;-85
2023/04/08 00:18:37;;;;;;;23.25;13.45;;;;;;;5.98;63.21;101596.25;680528;29;849;-85
2023/04/08 00:18:57;;;;;;;22.58;13.18;;;;;;;6.03;63.15;101614.66;682851;29;1382;-85
2023/04/08 00:19:43;;;;;;;22.17;13.05;;;;;;;6.01;63.13;101617.16;685610;28;1340;-85
2023/04/08 00:20:04;;;;;;;24.75;13.68;;;;;;;5.96;63.21;101600.44;680271;29;1547;-85
2023/04/08 00:20:25;;;;;;;25.08;13.98;;;;;;;5.98;62.72;101600.53;683095;29;803;-85
2023/04/08 00:20:46;;;;;;;25.17;13.80;;;;;;;5.93;62.71;101595.06;682958;29;1231;-85
2023/04/08 00:21:06;;;;;;;26.43;14.23;;;;;;;5.97;62.94;101601.34;685624;28;1155;-85
2023/04/08 00:21:27;;;;;;;26.58;14.15;;;;;;;5.95;62.84;101601.22;685825;28;924;-85
2023/04/08 00:21:47;;;;;;;26.17;14.10;;;;;;;5.78;62.97;101582.09;685587;28;989;-85
2023/04/08 00:22:08;;;;;;;24.33;13.77;;;;;;;5.81;63.28;101586.53;685727;28;1014;-85
2023/04/08 00:22:29;;;;;;;25.45;13.45;;;;;;;5.70;63.27;101594.56;683037;29;1085;-85
2023/04/08 00:22:49;;;;;;;25.05;13.63;;;;;;;5.69;63.05;101591.88;682921;29;1301;-84
2023/04/08 00:23:10;;;;;;;25.70;13.70;;;;;;;5.77;62.85;101593.22;682968;29;962;-85
2023/04/08 00:23:31;;;;;;;21.90;13.37;;;;;;;5.79;63.16;101598.50;688464;28;1184;-85
2023/04/08 00:23:51;;;;;;;21.88;13.30;;;;;;;5.85;63.18;101599.81;688293;28;1141;-85
2023/04/08 00:24:12;;;;;;;20.88;13.27;;;;;;;5.85;62.96;101609.25;685674;28;1072;-85
2023/04/08 00:24:33;;;;;;;23.67;13.70;;;;;;;5.84;63.06;101607.47;685731;28;1140;-85
2023/04/08 00:24:54;;;;;;;23.45;13.75;;;;;;;5.85;62.85;101598.91;685661;28;1005;-85
2023/04/08 00:25:15;;;;;;;25.27;14.25;;;;;;;5.79;62.95;101593.34;688391;28;1008;-85
2023/04/08 00:25:36;;;;;;;24.50;14.50;;;;;;;5.79;63.00;101595.94;685778;28;1254;-85
2023/04/08 00:25:57;;;;;;;24.52;14.63;;;;;;;5.87;63.05;101602.47;682723;29;1314;-85
2023/04/08 00:26:18;;;;;;;24.20;14.32;;;;;;;5.84;62.81;101597.13;680388;29;1457;-85
2023/04/08 00:26:39;;;;;;;24.00;14.68;;;;;;;5.88;63.20;101605.16;685854;28;880;-85
2023/04/08 00:27:01;;;;;;;22.60;13.63;;;;;;;5.85;62.86;101609.25;688084;28;1079;-85
2023/04/08 00:27:24;;;;;;;22.63;13.60;;;;;;;5.91;62.82;101614.81;685825;28;964;-85
2023/04/08 00:27:44;;;;;;;23.08;13.13;;;;;;;5.81;62.80;101596.91;688191;28;1410;-85
2023/04/08 00:28:05;;;;;;;25.48;13.65;;;;;;;5.72;63.16;101600.72;688270;28;1476;-85
2023/04/08 00:28:25;;;;;;;26.60;14.30;;;;;;;5.74;62.99;101608.59;683074;29;1202;-85
2023/04/08 00:28:46;;;;;;;24.95;13.90;;;;;;;5.73;62.92;101612.00;680320;29;1003;-85
2023/04/08 00:29:07;;;;;;;21.90;13.23;;;;;;;5.62;63.34;101598.38;680380;29;1076;-85
2023/04/08 00:29:28;;;;;;;20.88;12.70;;;;;;;5.79;63.29;101619.25;685791;28;764;-86
2023/04/08 00:29:48;;;;;;;20.23;12.40;;;;;;;5.73;62.98;101599.94;685679;28;1242;-85
2023/04/08 00:30:10;;;;;;;21.30;12.60;;;;;;;5.73;62.81;101599.03;680228;29;1439;-84
2023/04/08 00:30:31;;;;;;;19.30;11.88;;;;;;;5.69;63.08;101597.06;685861;28;1268;-85
2023/04/08 00:30:52;;;;;;;20.40;12.50;;;;;;;5.75;62.99;101597.44;685859;28;993;-85
2023/04/08 00:31:13;;;;;;;20.63;12.50;;;;;;;5.71;63.02;101591.16;683213;29;1373;-85
2023/04/08 00:31:33;;;;;;;19.58;12.02;;;;;;;5.85;63.08;101610.16;683418;29;1154;-85
2023/04/08 00:31:54;;;;;;;18.00;11.23;;;;;;;5.83;63.11;101601.38;682959;28;1168;-86
2023/04/08 00:32:14;;;;;;;16.98;11.00;;;;;;;5.83;63.32;101595.31;680209;29;1280;-85
2023/04/08 00:32:35;;;;;;;18.42;11.40;;;;;;;5.81;62.93;101594.31;680501;29;848;-85
2023/04/08 00:32:56;;;;;;;17.37;11.00;;;;;;;5.84;63.16;101602.28;680155;29;1121;-85
2023/04/08 00:33:16;;;;;;;16.10;10.80;;;;;;;5.81;63.03;101612.44;683000;29;1218;-85
2023/04/08 00:33:37;;;;;;;17.02;11.10;;;;;;;5.80;63.24;101605.47;683127;29;955;-85
2023/04/08 00:33:58;;;;;;;16.75;11.15;;;;;;;5.87;62.89;101610.25;682832;29;1175;-85
2023/04/08 00:34:19;;;;;;;16.85;11.50;;;;;;;5.90;63.00;101613.03;677738;29;1304;-85
2023/04/08 00:34:40;;;;;;;17.05;11.52;;;;;;;5.82;62.76;101604.78;680334;29;1903;-85
2023/04/08 00:35:01;;;;;;;18.30;11.82;;;;;;;5.86;62.59;101605.88;680201;29;1217;-85
2023/04/08 00:35:22;;;;;;;18.92;11.57;;;;;;;5.86;62.79;101611.03;680458;29;1206;-85
2023/04/08 00:35:43;;;;;;;20.48;11.35;;;;;;;5.79;62.68;101598.50;680299;29;1175;-84
2023/04/08 00:36:03;;;;;;;20.08;11.05;;;;;;;5.80;62.61;101602.88;683021;29;1062;-85
2023/04/08 00:36:26;;;;;;;18.42;10.80;;;;;;;5.75;62.70;101598.34;680435;29;1107;-85
2023/04/08 00:36:47;;;;;;;15.90;10.75;;;;;;;5.84;62.90;101612.66;680020;29;1239;-85
2023/04/08 00:37:08;;;;;;;16.40;11.10;;;;;;;5.81;62.97;101612.44;680401;29;1141;-85
2023/04/08 00:37:28;;;;;;;18.17;11.32;;;;;;;5.69;62.98;101602.22;680399;29;1084;-85
2023/04/08 00:37:49;;;;;;;18.33;10.75;;;;;;;5.79;63.08;101620.16;685522;28;1151;-85
2023/04/08 00:38:10;;;;;;;18.63;10.18;;;;;;;5.74;63.15;101606.91;680365;29;1222;-85
2023/04/08 00:38:32;;;;;;;17.85;10.27;;;;;;;5.81;62.97;101615.94;680392;29;920;-85
2023/04/08 00:38:52;;;;;;;17.05;9.95;;;;;;;5.74;63.03;101604.34;682929;29;1015;-84
2023/04/08 00:39:14;;;;;;;15.18;9.80;;;;;;;5.73;63.05;101602.53;682855;29;1264;-85
2023/04/08 00:39:36;;;;;;;15.07;9.30;;;;;;;5.75;62.96;101598.34;683003;29;1253;-85
2023/04/08 00:39:56;;;;;;;14.00;9.32;;;;;;;5.72;62.96;101600.72;682842;28;967;-85
2023/04/08 00:40:17;;;;;;;14.60;9.20;;;;;;;5.78;62.64;101612.28;682947;29;1279;-84
2023/04/08 00:40:38;;;;;;;12.43;8.53;;;;;;;5.81;63.07;101612.44;682905;29;1065;-85
2023/04/08 00:40:58;;;;;;;12.90;8.43;;;;;;;5.72;62.83;101603.31;680130;29;1296;-85
2023/04/08 00:41:19;;;;;;;11.93;8.52;;;;;;;5.75;62.96;101606.13;680395;29;1048;-85
2023/04/08 00:41:41;;;;;;;11.25;8.23;;;;;;;5.72;62.88;101600.72;680459;29;808;-85
2023/04/08 00:42:02;;;;;;;11.07;8.20;;;;;;;5.70;63.00;101598.88;685558;28;994;-85
2023/04/08 00:42:23;;;;;;;11.15;7.95;;;;;;;5.74;62.64;101600.84;685806;28;867;-85
2023/04/08 00:42:43;;;;;;;11.60;8.17;;;;;;;5.71;62.65;101604.13;688185;28;1269;-85
2023/04/08 00:43:04;;;;;;;11.50;8.27;;;;;;;5.72;62.68;101613.69;680151;28;1304;-85
2023/04/08 00:43:24;;;;;;;11.18;8.32;;;;;;;5.68;62.83;101598.75;680500;29;874;-86
2023/04/08 00:43:45;;;;;;;12.97;9.00;;;;;;;5.70;62.70;101604.03;680207;29;1139;-85
2023/04/08 00:44:06;;;;;;;12.80;9.00;;;;;;;5.68;62.64;101603.94;682943;28;1129;-84
2023/04/08 00:44:27;;;;;;;13.77;8.90;;;;;;;5.65;62.95;101598.56;683148;28;768;-85
2023/04/08 00:44:47;;;;;;;12.75;8.32;;;;;;;5.70;62.89;101609.22;682884;28;1068;-85
2023/04/08 00:45:09;;;;;;;12.65;8.48;;;;;;;5.71;62.74;101611.00;680345;29;1192;-85
2023/04/08 00:45:29;;;;;;;11.45;8.60;;;;;;;5.73;62.60;101617.19;680341;29;1082;-85
2023/04/08 00:45:50;;;;;;;11.05;8.73;;;;;;;5.72;62.96;101616.25;677784;29;1162;-84
2023/04/08 00:46:11;;;;;;;11.43;8.63;;;;;;;5.67;62.81;101609.94;682824;29;1190;-85
2023/04/08 00:46:38;;;;;;;12.52;8.38;;;;;;;5.69;62.84;101616.09;680426;29;1396;-85
2023/04/08 00:46:59;;;;;;;12.48;8.40;;;;;;;5.63;62.80;101602.75;682632;28;1108;-85
2023/04/08 00:47:20;;;;;;;11.77;8.10;;;;;;;5.71;62.47;101614.47;680282;29;1279;-85
2023/04/08 00:47:45;;;;;;;11.18;8.18;;;;;;;5.66;63.17;101608.16;685776;28;866;-85
2023/04/08 00:48:08;;;;;;;12.38;8.68;;;;;;;5.64;62.58;101609.72;682897;29;1306;-85
2023/04/08 00:48:30;;;;;;;12.33;8.97;;;;;;;5.63;62.93;101607.94;680386;29;1278;-85
2023/04/08 00:48:51;;;;;;;11.82;8.63;;;;;;;5.67;62.90;101612.53;688147;28;1302;-85
2023/04/08 00:49:11;;;;;;;12.20;8.23;;;;;;;5.72;62.88;101623.16;691038;28;989;-85
2023/04/08 00:49:32;;;;;;;12.70;7.90;;;;;;;5.64;62.63;101606.25;682947;29;1313;-85
2023/04/08 00:49:53;;;;;;;13.20;8.40;;;;;;;5.61;62.46;101607.81;683021;28;1170;-85
2023/04/08 00:50:13;;;;;;;13.25;8.75;;;;;;;5.59;62.97;101606.84;680361;29;1056;-85
2023/04/08 00:50:34;;;;;;;13.77;9.18;;;;;;;5.55;62.53;101610.06;680488;29;749;-85
2023/04/08 00:50:55;;;;;;;13.50;8.80;;;;;;;5.62;62.65;101621.69;682899;29;1292;-85
2023/04/08 00:51:15;;;;;;;12.53;8.77;;;;;;;5.56;62.63;101611.84;680246;29;982;-85
2023/04/08 00:51:36;;;;;;;11.20;8.38;;;;;;;5.54;62.59;101610.88;683099;29;798;-85
2023/04/08 00:51:58;;;;;;;12.25;8.68;;;;;;;5.51;62.56;101607.19;682817;28;1243;-85
2023/04/08 00:52:19;;;;;;;11.98;8.32;;;;;;;5.51;62.66;101607.19;685682;28;1191;-85
2023/04/08 00:52:39;;;;;;;12.50;8.30;;;;;;;5.55;62.80;101619.50;685630;28;1242;-85
2023/04/08 00:53:00;;;;;;;11.90;8.60;;;;;;;5.57;62.29;101617.91;682891;29;1162;-85
2023/04/08 00:53:21;;;;;;;12.05;8.50;;;;;;;5.48;62.67;101607.88;682985;28;1101;-85
2023/04/08 00:53:41;;;;;;;10.85;8.50;;;;;;;5.48;62.58;101605.31;680343;29;1066;-85
2023/04/08 00:54:06;;;;;;;11.30;8.30;;;;;;;5.57;62.70;101628.25;685548;28;1137;-85
2023/04/08 00:54:26;;;;;;;11.07;8.65;;;;;;;5.47;62.43;101609.56;682947;29;1315;-85
2023/04/08 00:54:47;;;;;;;10.88;8.32;;;;;;;5.45;62.63;101608.59;680186;29;1974;-85
2023/04/08 00:55:08;;;;;;;10.35;8.20;;;;;;;5.44;62.41;101609.41;685484;28;1279;-85
2023/04/08 00:55:28;;;;;;;10.50;8.10;;;;;;;5.45;62.45;101607.69;691035;28;1122;-85
2023/04/08 00:55:49;;;;;;;11.90;8.20;;;;;;;5.52;62.61;101619.34;685524;28;987;-85
2023/04/08 00:56:09;;;;;;;11.38;7.80;;;;;;;5.43;62.71;101610.19;685785;28;1196;-84
2023/04/08 00:56:31;;;;;;;10.80;7.53;;;;;;;5.38;62.48;101602.91;685638;28;1290;-85
2023/04/08 00:56:53;;;;;;;9.75;7.35;;;;;;;5.42;62.76;101616.19;685380;28;1177;-85
2023/04/08 00:57:14;;;;;;;10.23;7.63;;;;;;;5.44;62.51;101622.34;682959;29;1222;-85
2023/04/08 00:57:35;;;;;;;9.88;7.68;;;;;;;5.41;62.31;101622.13;680343;29;1198;-85
2023/04/08 00:57:56;;;;;;;9.80;7.63;;;;;;;5.42;62.33;101618.75;677692;29;1345;-85
2023/04/08 00:58:17;;;;;;;9.70;7.47;;;;;;;5.39;62.73;101618.56;685563;28;1415;-85
2023/04/08 00:58:39;;;;;;;9.93;7.32;;;;;;;5.43;62.66;101624.81;685618;28;1419;-85
2023/04/08 00:59:00;;;;;;;10.30;7.50;;;;;;;5.37;62.67;101620.16;685516;28;1104;-85
2023/04/08 00:59:21;;;;;;;9.80;7.40;;;;;;;5.31;62.41;101612.00;685609;28;1293;-85
2023/04/08 00:59:42;;;;;;;9.67;7.40;;;;;;;5.32;62.48;101619.88;682887;28;1165;-85
2023/04/08 01:00:06;;;;;;;9.20;7.30;;;;;;;5.40;62.52;101627.22;682937;29;1100;-85
2023/04/08 01:00:29;;;;;;;9.43;7.65;;;;;;;5.40;62.60;101625.50;685722;28;836;-84
2023/04/08 01:00:59;;;;;;;9.82;7.88;;;;;;;5.30;62.53;101613.72;679941;28;1386;-85
2023/04/08 01:01:31;;;;;;;11.43;8.10;;;;;;;5.31;62.74;101614.59;685503;28;1319;-85
2023/04/08 01:02:01;;;;;;;11.40;8.13;;;;;;;5.41;62.88;101637.66;685453;28;1056;-85
2023/04/08 01:02:33;;;;;;;10.95;7.97;;;;;;;5.32;62.50;101622.47;685551;28;1399;-84
2023/04/08 01:03:04;;;;;;;10.23;7.47;;;;;;;5.36;62.55;101626.13;682747;29;1255;-85
2023/04/08 01:03:48;;;;;;;9.25;6.97;;;;;;;5.38;62.52;101637.47;683030;29;804;-85
2023/04/08 01:04:23;;;;;;;10.18;7.10;;;;;;;5.34;62.60;101631.22;682514;29;1185;-85
2023/04/08 01:05:12;;;;;;;10.07;7.50;;;;;;;5.27;62.34;101623.84;685424;28;1114;-84
2023/04/08 01:05:54;;;;;;;9.10;7.40;;;;;;;5.23;62.67;101626.16;684396;28;1134;-85
2023/04/08 01:06:30;;;;;;;10.70;7.38;;;;;;;5.17;62.38;101604.25;682890;29;1256;-85
2023/04/08 01:07:13;;;;;;;9.70;7.30;;;;;;;5.29;62.57;101629.13;682659;29;999;-84
2023/04/08 01:07:37;;;;;;;8.35;6.93;;;;;;;5.20;62.78;101612.22;677666;29;1109;-85
2023/04/08 01:08:01;;;;;;;9.27;7.05;;;;;;;5.17;62.75;101609.41;680333;29;1002;-85
2023/04/08 01:08:25;;;;;;;8.98;7.03;;;;;;;5.20;62.69;101611.31;682878;29;1117;-85
2023/04/08 01:08:48;;;;;;;8.23;6.70;;;;;;;5.18;62.80;101606.06;682721;29;1163;-85
2023/04/08 01:09:11;;;;;;;8.23;6.65;;;;;;;5.19;62.51;101607.84;680301;29;990;-84
2023/04/08 01:09:34;;;;;;;9.07;7.07;;;;;;;5.20;62.64;101611.31;682774;29;1237;-84
2023/04/08 01:09:57;;;;;;;9.10;7.50;;;;;;;5.27;62.56;101617.81;685449;28;977;-85
2023/04/08 01:10:32;;;;;;;9.55;7.50;;;;;;;5.15;62.48;101598.09;685644;28;1076;-85
2023/04/08 01:10:59;;;;;;;8.68;6.35;;;;;;;5.19;62.90;101610.44;682612;28;1091;-85
2023/04/08 01:11:20;;;;;;;9.93;6.10;;;;;;;5.21;62.68;101607.94;682847;29;1024;-85
2023/04/08 01:11:43;;;;;;;10.68;6.60;;;;;;;5.18;62.45;101605.16;683000;29;1100;-85
2023/04/08 01:12:07;;;;;;;11.13;6.88;;;;;;;5.17;62.73;101606.84;682865;28;1010;-85
2023/04/08 01:12:35;;;;;;;9.82;7.10;;;;;;;5.30;62.50;101612.81;680306;29;1227;-85
2023/04/08 01:13:02;;;;;;;8.95;6.80;;;;;;;5.22;62.58;101607.16;677601;29;934;-84
2023/04/08 01:13:26;;;;;;;8.48;6.50;;;;;;;5.27;62.72;101607.44;680412;29;860;-85
2023/04/08 01:13:48;;;;;;;8.50;6.38;;;;;;;5.23;62.55;101605.44;682783;29;938;-85
2023/04/08 01:14:14;;;;;;;10.02;6.30;;;;;;;5.31;62.44;101622.34;685500;28;1426;-85
2023/04/08 01:14:41;;;;;;;9.90;6.63;;;;;;;5.23;62.60;101608.03;682967;29;1966;-85
2023/04/08 01:15:06;;;;;;;9.70;6.63;;;;;;;5.23;62.92;101608.03;682852;29;1138;-84
2023/04/08 01:15:29;;;;;;;8.57;6.68;;;;;;;5.28;62.93;101622.16;680377;29;1375;-85
2023/04/08 01:15:52;;;;;;;9.63;7.10;;;;;;;5.24;62.72;101612.41;680141;29;1497;-85
2023/04/08 01:16:15;;;;;;;9.27;6.88;;;;;;;5.27;62.79;101626.44;682925;29;989;-84
2023/04/08 01:16:39;;;;;;;8.98;6.65;;;;;;;5.29;62.76;101622.25;685679;28;951;-85
2023/04/08 01:17:01;;;;;;;8.95;6.50;;;;;;;5.31;62.55;101624.94;682557;29;909;-84
2023/04/08 01:17:22;;;;;;;8.82;6.78;;;;;;;5.20;62.65;101607.06;685310;28;1013;-85
2023/04/08 01:17:45;;;;;;;8.52;6.70;;;;;;;5.28;62.49;101624.75;682889;29;1089;-85
2023/04/08 01:18:08;;;;;;;8.27;6.60;;;;;;;5.24;62.53;101617.59;682793;28;1130;-84
2023/04/08 01:18:31;;;;;;;8.90;6.60;;;;;;;5.25;62.56;101619.38;680166;29;1416;-85
2023/04/08 01:18:54;;;;;;;9.10;6.65;;;;;;;5.22;62.25;101614.91;680214;29;1194;-85
2023/04/08 01:19:25;;;;;;;9.77;6.88;;;;;;;5.27;62.64;101628.16;682843;28;1376;-85
2023/04/08 01:19:48;;;;;;;9.55;7.00;;;;;;;5.15;62.19;101603.25;685462;28;1061;-85
2023/04/08 01:20:10;;;;;;;9.88;6.60;;;;;;;5.42;62.19;101623.94;682937;29;1007;-85
2023/04/08 01:20:31;;;;;;;10.13;6.70;;;;;;;5.49;61.60;101614.84;685641;28;1097;-85
2023/04/08 01:20:54;;;;;;;9.67;6.50;;;;;;;5.31;61.86;101597.38;690879;28;997;-85
2023/04/08 01:21:17;;;;;;;8.93;6.72;;;;;;;5.35;61.87;101606.22;685645;28;1104;-85
2023/04/08 01:21:39;;;;;;;8.75;6.85;;;;;;;5.31;61.94;101609.41;691039;28;843;-85
2023/04/08 01:22:14;;;;;;;8.27;6.57;;;;;;;5.32;61.86;101611.19;688081;28;1371;-85
2023/04/08 01:22:59;;;;;;;7.50;6.30;;;;;;;5.39;61.70;101618.56;685716;28;835;-85
2023/04/08 01:23:40;;;;;;;9.48;7.13;;;;;;;5.36;61.54;101620.97;685421;28;1636;-85
2023/04/08 01:24:06;;;;;;;9.15;7.00;;;;;;;5.37;61.77;101625.34;685291;28;1071;-85
2023/04/08 01:24:30;;;;;;;9.45;7.45;;;;;;;5.29;61.76;101621.38;685484;28;1571;-85
2023/04/08 01:24:58;;;;;;;8.90;7.05;;;;;;;5.26;61.89;101610.81;682707;29;1027;-84
2023/04/08 01:25:22;;;;;;;8.52;6.50;;;;;;;5.30;61.92;101617.97;682912;29;1230;-85
2023/04/08 01:25:51;;;;;;;8.32;6.32;;;;;;;5.24;61.91;101613.31;677589;29;1185;-85
2023/04/08 01:26:21;;;;;;;8.40;6.60;;;;;;;5.20;62.00;101599.28;680156;29;1005;-84
2023/04/08 01:26:43;;;;;;;10.10;6.93;;;;;;;5.31;62.33;101619.75;682952;29;1146;-85
2023/04/08 01:27:05;;;;;;;9.23;6.68;;;;;;;5.33;61.70;101624.25;682630;29;1201;-85
2023/04/08 01:27:29;;;;;;;8.40;6.32;;;;;;;5.24;61.96;101609.81;682992;29;1225;-85
2023/04/08 01:27:52;;;;;;;7.50;6.20;;;;;;;5.28;61.79;101619.59;685380;28;2105;-85
2023/04/08 01:28:15;;;;;;;8.80;6.72;;;;;;;5.22;61.92;101608.84;682882;29;1378;-85
2023/04/08 01:28:38;;;;;;;10.07;7.07;;;;;;;5.24;61.68;101612.41;680349;29;926;-84
2023/04/08 01:29:01;;;;;;;10.73;7.20;;;;;;;5.28;61.99;101615.28;682895;29;1188;-84
2023/04/08 01:29:25;;;;;;;12.05;7.20;;;;;;;5.29;61.59;101624.84;680258;29;1110;-84
2023/04/08 01:29:47;;;;;;;11.45;7.00;;;;;;;5.14;61.61;101605.75;680159;29;1097;-84
2023/04/08 01:30:09;;;;;;;9.93;6.70;;;;;;;5.26;61.79;101619.47;680169;29;1417;-85
2023/04/08 01:30:31;;;;;;;8.75;6.63;;;;;;;5.17;61.64;101612.00;685621;28;1407;-84
2023/04/08 01:30:55;;;;;;;9.05;6.68;;;;;;;5.18;61.58;101613.81;685397;28;1214;-85
2023/04/08 01:31:17;;;;;;;9.95;7.00;;;;;;;5.14;61.49;101606.66;680226;29;1057;-84
2023/04/08 01:31:40;;;;;;;8.52;6.68;;;;;;;5.15;61.64;101613.63;682930;29;1385;-84
2023/04/08 01:32:02;;;;;;;9.48;6.78;;;;;;;5.17;61.62;101613.72;677448;29;1091;-85
2023/04/08 01:32:24;;;;;;;8.98;6.65;;;;;;;5.22;61.47;101624.38;683023;29;895;-85
2023/04/08 01:32:48;;;;;;;8.23;6.45;;;;;;;5.12;61.48;101612.53;682607;29;1485;-85
2023/04/08 01:33:15;;;;;;;8.52;6.30;;;;;;;5.16;61.66;101618.00;685522;28;1275;-85
2023/04/08 01:33:36;;;;;;;8.80;6.50;;;;;;;5.18;61.34;101623.28;682972;29;854;-84
2023/04/08 01:33:58;;;;;;;9.47;6.70;;;;;;;5.16;61.55;101618.00;682819;28;926;-85
2023/04/08 01:34:19;;;;;;;9.70;6.68;;;;;;;5.17;61.58;101621.47;688260;28;1118;-85
2023/04/08 01:34:41;;;;;;;9.32;6.63;;;;;;;5.15;61.81;101625.69;688214;28;1918;-85
2023/04/08 01:35:02;;;;;;;9.55;6.90;;;;;;;5.23;61.88;101641.69;685316;28;1316;-85
2023/04/08 01:35:23;;;;;;;8.98;6.80;;;;;;;5.09;61.69;101613.22;683074;29;737;-85
2023/04/08 01:35:45;;;;;;;9.20;6.90;;;;;;;5.11;61.59;101614.22;680190;29;1089;-85
2023/04/08 01:36:07;;;;;;;7.95;6.45;;;;;;;5.13;61.76;101619.47;682980;29;1230;-85
2023/04/08 01:36:32;;;;;;;8.96;6.84;;;;;;;5.19;61.63;101628.56;685668;28;906;-84
2023/04/08 01:36:55;;;;;;;8.73;6.90;;;;;;;5.13;61.85;101619.47;687864;28;1297;-84
2023/04/08 01:37:17;;;;;;;8.88;6.57;;;;;;;5.14;61.69;101622.19;682827;29;1238;-84
2023/04/08 01:37:39;;;;;;;7.90;6.18;;;;;;;5.16;61.76;101628.34;680249;29;1340;-84
2023/04/08 01:38:01;;;;;;;7.28;6.10;;;;;;;5.18;61.72;101641.38;677538;29;1176;-84
2023/04/08 01:38:25;;;;;;;7.65;6.05;;;;;;;5.23;61.81;101639.09;682900;29;1405;-85
2023/04/08 01:38:47;;;;;;;8.68;6.10;;;;;;;5.20;61.47;101632.03;682677;29;1152;-85
2023/04/08 01:39:10;;;;;;;8.68;6.05;;;;;;;5.10;61.80;101615.03;685416;28;1259;-84
2023/04/08 01:39:32;;;;;;;9.10;6.40;;;;;;;5.22;61.36;101645.97;685062;28;1252;-85
2023/04/08 01:39:54;;;;;;;9.25;6.50;;;;;;;5.12;61.84;101628.97;688025;28;1357;-85
2023/04/08 01:40:17;;;;;;;8.98;6.68;;;;;;;5.20;61.45;101632.94;688247;28;1057;-84
2023/04/08 01:40:39;;;;;;;7.50;6.13;;;;;;;5.20;61.35;101632.94;685581;28;1264;-85
2023/04/08 01:41:00;;;;;;;6.90;6.05;;;;;;;5.05;61.37;101613.84;685406;28;1112;-85
2023/04/08 01:41:23;;;;;;;6.70;6.00;;;;;;;5.15;61.47;101639.50;683132;29;800;-85
2023/04/08 01:41:45;;;;;;;7.03;6.32;;;;;;;5.08;61.24;101632.13;682704;29;1280;-84
2023/04/08 01:42:07;;;;;;;7.93;6.55;;;;;;;5.00;61.43;101622.97;685483;28;1204;-84
2023/04/08 01:42:29;;;;;;;7.80;6.22;;;;;;;5.02;61.47;101642.97;688220;28;1439;-85
2023/04/08 01:42:53;;;;;;;7.40;6.18;;;;;;;5.02;61.23;101642.06;688051;28;1205;-85
2023/04/08 01:43:16;;;;;;;7.65;6.38;;;;;;;5.03;61.58;101643.91;685632;28;981;-84
2023/04/08 01:43:42;;;;;;;8.60;6.40;;;;;;;4.91;61.78;101621.59;682924;29;1350;-84
2023/04/08 01:44:04;;;;;;;8.75;6.68;;;;;;;5.03;61.84;101639.59;685379;28;1343;-84
2023/04/08 01:44:26;;;;;;;7.85;6.50;;;;;;;4.99;61.45;101629.88;683031;29;830;-84
2023/04/08 01:44:48;;;;;;;8.00;6.45;;;;;;;4.95;61.80;101629.56;682750;29;1331;-85
2023/04/08 01:45:09;;;;;;;8.05;6.45;;;;;;;4.99;61.48;101637.63;685662;28;1113;-84
2023/04/08 01:45:30;;;;;;;8.70;6.70;;;;;;;5.01;61.63;101640.28;685447;28;1098;-84
2023/04/08 01:45:56;;;;;;;8.27;6.63;;;;;;;5.00;61.58;101630.75;682786;29;1292;-84
2023/04/08 01:46:19;;;;;;;9.07;6.70;;;;;;;4.98;61.54;101629.75;682880;29;1345;-85
2023/04/08 01:46:41;;;;;;;8.90;6.60;;;;;;;4.98;61.72;101629.75;680208;29;835;-85
2023/04/08 01:47:02;;;;;;;7.78;6.60;;;;;;;4.98;61.75;101624.59;680031;29;1014;-84
2023/04/08 01:47:24;;;;;;;8.17;6.50;;;;;;;4.93;61.80;101621.69;685662;28;851;-84
2023/04/08 01:47:47;;;;;;;8.00;6.57;;;;;;;4.95;61.65;101619.22;682781;29;1382;-85
2023/04/08 01:48:08;;;;;;;8.32;6.60;;;;;;;4.96;61.82;101621.88;680177;29;1098;-84
2023/04/08 01:48:30;;;;;;;8.60;6.97;;;;;;;4.96;61.60;101623.59;680185;29;836;-84
2023/04/08 01:48:51;;;;;;;8.82;6.93;;;;;;;4.92;61.76;101615.63;682819;28;994;-84